Time;durP1;ratioP1;P1;durP2;ratioP2;P2;SDS_P1;SDS_P2;PMS_P1;PMS_P2;Temp;Humidity;BMP_temperature;BMP_pressure;BME280_temperature;BME280_humidity;BME280_pressure;Samples;Min_cycle;Max_cycle;Signal;HPM_P1;HPM_P2
2021/11/12 00:02:09;;;;;;;;;72.33;55.33;;;;;4.80;83.55;101309.53;4994734;28;45334;-69
2021/11/12 00:12:22;;;;;;;;;81.33;59.33;;;;;4.62;83.84;101333.91;4994128;28;45283;-67
2021/11/12 00:14:50;;;;;;;;;84.33;61.33;;;;;4.58;84.37;101338.25;4994691;28;45381;-67
2021/11/12 00:17:18;;;;;;;;;88.00;69.00;;;;;4.58;84.48;101326.97;4995983;28;47024;-70
2021/11/12 00:19:44;;;;;;;;;82.00;68.00;;;;;4.61;84.71;101329.59;4994676;27;45357;-69
2021/11/12 00:22:10;;;;;;;;;83.33;67.33;;;;;4.68;84.38;101334.75;4993668;28;45282;-67
2021/11/12 00:24:36;;;;;;;;;86.33;68.00;;;;;4.73;84.68;101334.75;5008742;28;45286;-67
2021/11/12 00:27:04;;;;;;;;;86.00;66.67;;;;;4.77;84.58;101333.88;4993206;28;46053;-67
2021/11/12 00:29:32;;;;;;;;;82.00;65.33;;;;;4.86;84.28;101332.97;4993093;28;45416;-68
2021/11/12 00:40:14;;;;;;;;;85.67;69.00;;;;;5.05;83.85;101307.66;4992215;28;45336;-66
2021/11/12 00:45:20;;;;;;;;;84.00;63.67;;;;;5.13;83.55;101305.03;4994394;28;45381;-68
2021/11/12 00:47:54;;;;;;;;;76.67;57.33;;;;;5.14;84.08;101311.09;4992688;28;45468;-68
2021/11/12 00:50:40;;;;;;;;;88.00;70.67;;;;;5.08;83.33;101299.81;4992977;28;45304;-67
2021/11/12 00:55:39;;;;;;;;;78.50;58.25;;;;;5.19;83.08;101323.25;4993565;28;45344;-67
2021/11/12 00:58:05;;;;;;;;;78.00;59.00;;;;;5.19;83.06;101317.13;4993180;28;46379;-66
2021/11/12 01:00:30;;;;;;;;;79.75;60.25;;;;;5.19;82.96;101314.53;4994571;28;45311;-67
2021/11/12 01:02:56;;;;;;;;;76.25;58.25;;;;;5.16;82.96;101307.59;4996213;28;45314;-68
2021/11/12 01:05:22;;;;;;;;;75.00;58.00;;;;;5.19;83.11;101318.03;4992356;28;45421;-67
2021/11/12 01:07:48;;;;;;;;;73.75;56.50;;;;;5.12;83.48;101305.91;4993034;28;45339;-68
2021/11/12 01:10:15;;;;;;;;;77.00;58.33;;;;;5.19;82.95;101311.91;4992846;28;45198;-67
2021/11/12 01:12:42;;;;;;;;;81.33;62.67;;;;;5.21;82.71;101315.38;4993805;28;45223;-67
2021/11/12 01:15:12;;;;;;;;;72.00;55.25;;;;;5.22;83.00;101312.78;4993179;28;45355;-68
2021/11/12 01:17:38;;;;;;;;;78.75;57.00;;;;;5.24;82.61;101307.53;4992683;28;46116;-66
2021/11/12 01:20:05;;;;;;;;;76.67;58.00;;;;;5.24;83.00;101294.50;4993617;28;45274;-68
2021/11/12 01:22:32;;;;;;;;;76.25;55.75;;;;;5.28;82.89;101297.97;4992876;28;45268;-68
2021/11/12 01:24:57;;;;;;;;;78.25;57.25;;;;;5.26;82.25;101290.13;4992954;28;45220;-69
2021/11/12 01:27:23;;;;;;;;;73.25;56.25;;;;;5.21;81.70;101291.91;4992714;28;45329;-68
2021/11/12 01:29:48;;;;;;;;;72.75;55.50;;;;;5.17;81.76;101287.59;4992638;28;45364;-68
2021/11/12 01:32:20;;;;;;;;;74.50;55.75;;;;;5.11;81.72;101294.56;4994826;28;45354;-68
2021/11/12 01:34:48;;;;;;;;;75.75;56.25;;;;;5.08;81.38;101288.53;4995634;28;45365;-68
2021/11/12 01:37:16;;;;;;;;;74.75;55.25;;;;;5.07;82.22;101272.00;4995351;28;45970;-69
2021/11/12 01:39:41;;;;;;;;;77.50;58.75;;;;;5.08;82.03;101285.94;4995603;28;45918;-68
2021/11/12 01:42:07;;;;;;;;;70.50;53.25;;;;;5.06;81.77;101275.50;4996114;28;45409;-67
2021/11/12 01:44:40;;;;;;;;;74.50;54.25;;;;;5.07;81.29;101284.19;4997274;28;45358;-65
2021/11/12 01:49:47;;;;;;;;;70.00;52.00;;;;;5.02;81.35;101288.56;4997718;28;45282;-68
2021/11/12 01:55:06;;;;;;;;;74.75;55.75;;;;;4.90;81.78;101279.06;4996228;28;45389;-67
2021/11/12 01:59:58;;;;;;;;;70.75;51.75;;;;;4.91;81.58;101279.06;4996357;28;45357;-64
2021/11/12 02:02:25;;;;;;;;;69.00;51.25;;;;;4.90;81.99;101273.84;4994647;28;45341;-66
2021/11/12 02:04:51;;;;;;;;;69.25;52.00;;;;;4.86;81.39;101264.31;4995019;28;45389;-70
2021/11/12 02:07:17;;;;;;;;;67.75;51.50;;;;;4.79;81.17;101259.13;4997030;28;46105;-66
2021/11/12 02:09:42;;;;;;;;;67.75;51.50;;;;;4.73;81.37;101250.47;4995487;28;45674;-67
2021/11/12 02:14:42;;;;;;;;;72.00;52.50;;;;;4.59;81.88;101246.19;4995769;28;45293;-65
2021/11/12 02:17:22;;;;;;;;;68.00;50.00;;;;;4.61;81.89;101254.88;4994684;28;45382;-64
2021/11/12 02:22:32;;;;;;;;;66.50;50.25;;;;;4.60;81.90;101249.69;4995456;28;45352;-63
2021/11/12 02:25:26;;;;;;;;;68.00;50.75;;;;;4.56;82.01;101243.59;4996008;28;45480;-66
2021/11/12 02:27:57;;;;;;;;;64.25;49.75;;;;;4.51;81.93;101243.63;4996182;27;45918;-69
2021/11/12 02:30:26;;;;;;;;;63.50;49.25;;;;;4.47;82.33;101239.31;4998836;28;45427;-68
2021/11/12 02:33:02;;;;;;;;;67.50;51.75;;;;;4.48;81.75;101235.84;4996419;28;45412;-66
2021/11/12 02:35:29;;;;;;;;;65.00;51.50;;;;;4.47;82.19;101238.44;4995495;28;45512;-67
2021/11/12 02:37:55;;;;;;;;;67.75;51.00;;;;;4.48;82.10;101245.38;4994748;28;47070;-66
2021/11/12 02:40:21;;;;;;;;;62.75;48.50;;;;;4.47;82.02;101236.69;4997830;28;45263;-69
2021/11/12 02:42:47;;;;;;;;;70.75;51.50;;;;;4.45;81.92;101238.44;4995945;28;45484;-68
2021/11/12 02:45:13;;;;;;;;;67.25;52.25;;;;;4.44;82.65;101238.44;4997049;28;45560;-67
2021/11/12 02:47:38;;;;;;;;;63.25;50.50;;;;;4.45;82.31;101243.66;5001638;28;45402;-67
2021/11/12 02:50:04;;;;;;;;;65.25;50.25;;;;;4.42;82.48;101230.66;4998246;28;45212;-65
2021/11/12 02:52:29;;;;;;;;;64.25;52.50;;;;;4.48;82.66;101229.75;5015108;28;45337;-68
2021/11/12 02:54:55;;;;;;;;;64.25;48.50;;;;;4.51;82.80;101229.72;5002661;28;45623;-67
2021/11/12 02:57:24;;;;;;;;;69.00;50.25;;;;;4.53;82.39;101233.19;5002744;28;45226;-66
2021/11/12 02:59:49;;;;;;;;;67.25;52.25;;;;;4.55;82.30;101239.25;5000376;28;45492;-69
2021/11/12 03:02:15;;;;;;;;;64.75;48.25;;;;;4.56;81.90;101238.38;4998965;28;45717;-67
2021/11/12 03:04:41;;;;;;;;;69.50;49.75;;;;;4.53;81.86;101234.06;4997796;28;45551;-66
2021/11/12 03:07:06;;;;;;;;;60.25;47.00;;;;;4.50;81.52;101228.88;4997224;28;46062;-66
2021/11/12 03:09:34;;;;;;;;;63.75;50.50;;;;;4.50;81.40;101241.03;4994966;28;45421;-67
2021/11/12 03:12:01;;;;;;;;;62.75;47.75;;;;;4.47;81.44;101228.00;4995431;28;45406;-66
2021/11/12 03:14:27;;;;;;;;;61.00;48.25;;;;;4.43;81.86;101228.91;4995777;28;45342;-63
2021/11/12 03:16:52;;;;;;;;;61.25;47.00;;;;;4.42;81.38;101232.38;4996446;28;46394;-68
2021/11/12 03:19:20;;;;;;;;;62.25;45.00;;;;;4.34;81.30;101228.06;4994725;28;45272;-67
2021/11/12 03:21:47;;;;;;;;;60.75;45.75;;;;;4.36;81.68;101226.31;4995618;27;45279;-67
2021/11/12 03:24:28;;;;;;;;;56.25;45.50;;;;;4.37;81.24;101233.25;4996608;28;45629;-67
2021/11/12 03:27:07;;;;;;;;;59.25;45.00;;;;;4.29;81.72;101218.56;4995062;28;46177;-66
2021/11/12 03:59:52;;;;;;;;;55.00;44.50;;;;;4.21;81.14;101208.16;4994837;28;45326;-68
2021/11/12 04:21:11;;;;;;;;;63.50;46.00;;;;;4.10;80.58;101174.31;4996110;28;45433;-66
2021/11/12 05:26:17;;;;;;;;;52.75;42.00;;;;;4.15;80.24;101083.19;4996465;28;45833;-64
2021/11/12 05:50:21;;;;;;;;;54.75;39.50;;;;;3.76;80.72;101078.16;4995569;28;45227;-67
2021/11/12 05:55:31;;;;;;;;;53.75;40.50;;;;;3.80;80.96;101072.94;4996512;28;45313;-67
2021/11/12 05:57:58;;;;;;;;;55.50;45.25;;;;;3.82;81.26;101074.69;4996264;28;45978;-66
2021/11/12 06:00:24;;;;;;;;;52.00;43.00;;;;;3.85;81.90;101075.50;4995651;28;45301;-68
2021/11/12 06:02:49;;;;;;;;;52.25;38.75;;;;;3.77;81.63;101038.25;4995532;28;45226;-65
2021/11/12 06:05:18;;;;;;;;;44.75;38.25;;;;;3.95;81.27;101058.97;4997877;28;45260;-69
2021/11/12 06:07:47;;;;;;;;;52.75;38.50;;;;;3.92;80.70;101068.56;4995685;27;45380;-67
2021/11/12 06:10:13;;;;;;;;;50.25;40.25;;;;;3.90;81.26;101065.94;4995069;28;45376;-67
2021/11/12 06:12:38;;;;;;;;;53.00;41.00;;;;;3.93;81.30;101068.53;5001733;28;45317;-68
2021/11/12 06:15:04;;;;;;;;;55.75;39.25;;;;;3.92;81.10;101069.41;5001347;28;45265;-65
2021/11/12 06:17:30;;;;;;;;;46.50;37.75;;;;;3.94;81.32;101070.25;4996209;27;45317;-66
2021/11/12 06:19:56;;;;;;;;;52.50;40.00;;;;;3.98;80.58;101072.84;4996723;28;45423;-67
2021/11/12 06:22:21;;;;;;;;;49.50;38.00;;;;;3.98;80.54;101068.53;4995407;28;45858;-67
2021/11/12 06:24:47;;;;;;;;;53.00;37.25;;;;;3.98;80.83;101070.25;4995198;28;45556;-64
2021/11/12 06:27:12;;;;;;;;;47.00;36.75;;;;;3.94;81.13;101051.19;4997727;28;46263;-67
2021/11/12 06:29:37;;;;;;;;;50.75;37.25;;;;;4.03;81.15;101061.56;4998421;28;45294;-67
2021/11/12 06:32:03;;;;;;;;;45.00;38.50;;;;;4.05;80.98;101048.50;4994378;28;45256;-66
2021/11/12 06:34:30;;;;;;;;;49.00;39.50;;;;;4.09;81.28;101051.09;4995566;28;45380;-64
2021/11/12 06:36:55;;;;;;;;;45.25;36.00;;;;;4.06;80.81;101060.66;4996460;28;46675;-66
2021/11/12 06:39:21;;;;;;;;;42.25;34.75;;;;;4.05;80.84;101066.72;4995620;27;45582;-67
2021/11/12 06:49:38;;;;;;;;;42.25;34.25;;;;;4.17;80.82;101076.22;4994939;28;45401;-67
2021/11/12 06:52:04;;;;;;;;;37.50;33.25;;;;;4.20;80.65;101063.19;4995239;28;45344;-68
2021/11/12 06:54:30;;;;;;;;;19.75;16.75;;;;;4.24;80.68;101062.28;4994972;28;45437;-68
2021/11/12 06:56:56;;;;;;;;;32.50;30.75;;;;;4.25;80.28;101048.41;4994615;28;45485;-65
2021/11/12 06:59:21;;;;;;;;;38.75;33.25;;;;;4.23;79.74;101040.59;4994468;28;45373;-67
2021/11/12 07:01:47;;;;;;;;;37.00;32.50;;;;;4.24;80.36;101041.47;4994809;28;45375;-65
2021/11/12 07:04:13;;;;;;;;;39.75;31.50;;;;;4.17;80.03;101038.03;4994412;27;45367;-65
2021/11/12 07:06:39;;;;;;;;;35.75;31.50;;;;;4.23;79.96;101051.00;4994534;28;45393;-66
2021/11/12 07:09:07;;;;;;;;;37.50;33.75;;;;;4.25;80.50;101053.59;4994583;28;45360;-68
2021/11/12 07:11:32;;;;;;;;;47.00;33.75;;;;;4.28;80.74;101050.13;4994256;28;45226;-67
2021/11/12 07:13:58;;;;;;;;;43.00;35.50;;;;;4.30;79.81;101058.81;4992977;28;45305;-68
2021/11/12 07:16:23;;;;;;;;;33.00;30.25;;;;;4.33;79.92;101069.19;4995362;28;45325;-66
2021/11/12 07:18:49;;;;;;;;;39.50;31.25;;;;;4.32;79.60;101067.47;4994387;28;45486;-67
2021/11/12 07:21:14;;;;;;;;;31.50;27.50;;;;;4.32;79.39;101065.72;4995279;28;45465;-69
2021/11/12 07:23:40;;;;;;;;;38.00;33.75;;;;;4.32;80.17;101055.28;4994932;28;45417;-68
2021/11/12 07:26:05;;;;;;;;;36.75;30.00;;;;;4.38;80.41;101060.47;4997175;28;46082;-67
2021/11/12 07:28:31;;;;;;;;;40.25;29.50;;;;;4.42;79.67;101050.91;4996777;28;45354;-67
2021/11/12 07:30:57;;;;;;;;;32.00;29.50;;;;;4.45;79.89;101047.41;4995155;28;45379;-66
2021/11/12 07:33:24;;;;;;;;;47.00;34.50;;;;;4.47;79.89;101041.31;4995382;28;45369;-68
2021/11/12 07:35:53;;;;;;;;;43.75;36.25;;;;;4.51;79.69;101037.81;4993877;28;47224;-69
2021/11/12 07:38:45;;;;;;;;;41.75;35.00;;;;;4.53;79.36;101033.44;4994895;28;45196;-68
2021/11/12 07:49:14;;;;;;;;;42.75;34.00;;;;;4.68;79.54;101032.44;4994154;28;45314;-68
2021/11/12 07:51:41;;;;;;;;;44.00;34.00;;;;;4.76;78.88;101021.09;4994575;28;45354;-68
2021/11/12 07:54:08;;;;;;;;;39.25;31.25;;;;;4.81;79.10;101014.13;4993813;28;45636;-69
2021/11/12 07:56:33;;;;;;;;;50.00;39.25;;;;;4.86;78.62;101006.25;4994707;28;46108;-66
2021/11/12 07:59:00;;;;;;;;;44.25;32.25;;;;;4.91;79.28;101005.34;4994406;28;45672;-67
2021/11/12 08:01:26;;;;;;;;;39.75;33.75;;;;;5.00;79.59;101012.19;4995126;28;45309;-67
2021/11/12 08:03:54;;;;;;;;;32.50;26.75;;;;;5.03;78.56;101008.69;4994852;28;45430;-66
2021/11/12 08:06:21;;;;;;;;;37.25;29.75;;;;;5.08;78.68;101023.41;4994773;28;46059;-68
2021/11/12 08:09:08;;;;;;;;;39.00;30.25;;;;;5.09;78.07;101035.56;5001069;28;45350;-65
2021/11/12 08:11:44;;;;;;;;;33.50;30.50;;;;;5.12;78.22;101064.19;5001522;28;45223;-68
2021/11/12 08:19:47;;;;;;;;;40.00;32.75;;;;;5.24;78.23;101076.28;4999237;28;45302;-67
2021/11/12 08:22:13;;;;;;;;;50.75;39.00;;;;;5.35;78.54;101070.97;4996303;28;45384;-66
2021/11/12 08:24:45;;;;;;;;;54.25;40.00;;;;;5.46;78.33;101064.75;4993518;28;45201;-67
2021/11/12 08:30:06;;;;;;;;;48.25;36.00;;;;;5.63;77.67;101041.94;4994309;28;45339;-68
2021/11/12 08:32:53;;;;;;;;;52.25;39.25;;;;;5.64;77.82;101038.44;4994284;28;45441;-67
2021/11/12 08:43:14;;;;;;;;;49.75;37.25;;;;;5.91;76.78;101046.78;4993685;28;45385;-68
2021/11/12 08:45:38;;;;;;;;;45.00;38.25;;;;;5.95;76.26;101050.25;4993650;28;45334;-73
2021/11/12 08:48:10;;;;;;;;;49.75;38.25;;;;;6.00;76.77;101038.00;4993760;28;47113;-69
2021/11/12 08:50:36;;;;;;;;;52.00;37.75;;;;;6.06;76.63;101056.22;4994869;28;45520;-66
2021/11/12 08:53:07;;;;;;;;;42.25;36.00;;;;;6.09;76.85;101052.69;4995418;28;45292;-68
2021/11/12 08:55:35;;;;;;;;;50.00;37.75;;;;;6.10;76.13;101049.19;4995548;28;45301;-69
2021/11/12 08:58:02;;;;;;;;;56.25;42.25;;;;;6.13;76.77;101033.47;4993986;28;48147;-68
2021/11/12 09:00:28;;;;;;;;;52.25;40.25;;;;;6.09;75.52;101026.56;4995499;27;45181;-67
2021/11/12 09:02:56;;;;;;;;;45.25;37.25;;;;;6.12;76.21;101016.94;4994960;28;45500;-67
2021/11/12 09:05:22;;;;;;;;;40.00;35.25;;;;;6.17;76.39;101037.75;4996441;28;45340;-70
2021/11/12 09:07:50;;;;;;;;;44.50;36.50;;;;;6.13;75.61;101044.78;4996286;28;46581;-66
2021/11/12 09:10:16;;;;;;;;;49.00;36.75;;;;;6.06;76.16;101042.28;4997461;28;45332;-65
2021/11/12 09:12:45;;;;;;;;;50.50;37.25;;;;;6.07;75.90;101044.88;4998831;28;45383;-66
2021/11/12 09:15:14;;;;;;;;;50.75;39.75;;;;;6.05;76.45;101051.88;4997615;28;45314;-67
2021/11/12 09:17:46;;;;;;;;;49.75;38.00;;;;;6.07;76.17;101049.22;4999251;28;45675;-66
2021/11/12 09:20:13;;;;;;;;;45.25;36.25;;;;;6.08;76.81;101054.44;5014663;28;45283;-67
2021/11/12 09:22:38;;;;;;;;;58.50;40.75;;;;;6.08;76.98;101050.97;4995161;28;45426;-65
2021/11/12 09:25:04;;;;;;;;;51.00;38.75;;;;;6.07;76.48;101047.50;4994683;28;45399;-68
2021/11/12 09:27:30;;;;;;;;;50.00;38.00;;;;;6.07;76.31;101041.41;4993441;28;45944;-67
2021/11/12 09:29:56;;;;;;;;;56.00;43.75;;;;;6.08;76.06;101037.91;5008278;28;45357;-69
2021/11/12 09:32:22;;;;;;;;;52.00;40.50;;;;;6.08;76.42;101033.56;4993526;28;45362;-69
2021/11/12 09:34:48;;;;;;;;;58.00;46.50;;;;;6.10;76.65;101026.56;4993761;28;45385;-67
2021/11/12 09:37:23;;;;;;;;;51.25;39.00;;;;;6.13;76.28;101020.41;4993429;28;45411;-67
2021/11/12 09:39:54;;;;;;;;;53.50;39.00;;;;;6.08;76.19;101011.78;4992951;28;45359;-67
2021/11/12 09:42:27;;;;;;;;;54.00;39.75;;;;;6.09;76.91;101029.19;4994183;28;46101;-68
2021/11/12 09:44:53;;;;;;;;;48.50;38.00;;;;;6.11;76.98;101011.72;4993482;28;45416;-69
2021/11/12 09:47:24;;;;;;;;;54.25;42.75;;;;;6.14;76.33;101019.53;4993599;28;46178;-71
2021/11/12 09:49:51;;;;;;;;;52.00;40.25;;;;;6.17;75.94;101024.69;4993970;28;45452;-69
2021/11/12 09:52:17;;;;;;;;;53.50;41.00;;;;;6.24;75.70;101028.09;4995239;28;45324;-67
2021/11/12 09:54:42;;;;;;;;;55.00;42.50;;;;;6.29;75.31;101016.69;4997553;28;45320;-70
2021/11/12 09:57:09;;;;;;;;;56.50;43.25;;;;;6.43;76.20;100999.94;4997073;28;45577;-69
2021/11/12 09:59:35;;;;;;;;;55.25;42.50;;;;;6.59;75.96;100984.84;4997688;28;45169;-67
2021/11/12 10:02:03;;;;;;;;;58.00;44.75;;;;;6.73;76.19;100979.41;4997119;28;45256;-67
2021/11/12 10:04:30;;;;;;;;;56.50;42.75;;;;;6.79;75.16;100971.44;4997263;28;45527;-65
2021/11/12 10:06:57;;;;;;;;;50.75;40.25;;;;;6.85;74.70;100960.00;4995895;28;45603;-68
2021/11/12 10:09:23;;;;;;;;;57.25;43.75;;;;;6.93;74.12;100971.19;4996341;28;45337;-69
2021/11/12 10:11:54;;;;;;;;;53.50;43.00;;;;;7.01;74.62;100971.03;5011581;28;45408;-69
2021/11/12 10:14:41;;;;;;;;;51.00;38.75;;;;;7.16;74.38;100970.75;4995783;28;45512;-70
2021/11/12 10:17:08;;;;;;;;;48.25;38.00;;;;;7.23;73.66;100968.88;4997944;28;45417;-68
2021/11/12 10:19:48;;;;;;;;;52.50;36.50;;;;;7.32;73.75;100965.19;4995772;28;45302;-68
2021/11/12 10:22:16;;;;;;;;;54.25;40.25;;;;;7.42;73.56;100979.84;4997541;28;45337;-68
2021/11/12 10:24:43;;;;;;;;;55.75;42.50;;;;;7.35;73.15;100972.13;4998005;28;45586;-67
2021/11/12 10:27:14;;;;;;;;;41.25;32.50;;;;;7.38;72.75;100978.16;4997764;28;46328;-67
2021/11/12 10:29:46;;;;;;;;;68.00;52.00;;;;;7.39;73.22;100984.25;4997218;28;45513;-67
2021/11/12 10:32:20;;;;;;;;;48.00;38.00;;;;;7.40;72.24;100971.13;4996367;28;45206;-68
2021/11/12 10:34:49;;;;;;;;;52.25;40.00;;;;;7.43;72.63;100968.47;5012185;28;45542;-67
2021/11/12 10:37:23;;;;;;;;;49.75;40.25;;;;;7.38;72.40;100956.38;4996898;28;46433;-68
2021/11/12 10:40:03;;;;;;;;;48.75;40.00;;;;;7.13;72.42;100918.47;5015094;28;45453;-65
2021/11/12 10:42:33;;;;;;;;;45.50;35.25;;;;;7.34;72.22;100950.31;4999630;28;45471;-68
2021/11/12 10:45:08;;;;;;;;;52.25;40.50;;;;;7.35;72.57;100983.44;5011810;28;45587;-68
2021/11/12 10:47:35;;;;;;;;;49.50;40.75;;;;;7.28;72.54;100987.09;4995313;28;46011;-68
2021/11/12 10:50:08;;;;;;;;;49.50;39.50;;;;;7.29;73.13;100989.69;5010804;28;45398;-68
2021/11/12 10:52:37;;;;;;;;;50.00;38.50;;;;;7.29;72.52;100965.25;4995276;28;45414;-66
2021/11/12 10:55:22;;;;;;;;;50.75;40.50;;;;;7.31;72.50;100953.00;4995487;28;45521;-68
2021/11/12 10:58:00;;;;;;;;;51.00;40.00;;;;;7.36;72.46;100924.13;4996434;28;45373;-66
2021/11/12 11:00:47;;;;;;;;;56.25;43.50;;;;;7.35;72.05;100904.94;4996035;28;45270;-69
2021/11/12 11:03:17;;;;;;;;;58.75;45.00;;;;;7.18;73.17;100875.66;4994935;28;45277;-69
2021/11/12 11:05:50;;;;;;;;;56.00;43.50;;;;;7.46;72.28;100902.09;4994682;28;45525;-68
2021/11/12 11:08:21;;;;;;;;;51.00;42.00;;;;;7.48;72.34;100891.59;4996735;28;46183;-69
2021/11/12 11:10:50;;;;;;;;;56.00;44.00;;;;;7.53;72.69;100881.91;4995680;28;45331;-66
2021/11/12 11:13:24;;;;;;;;;50.25;42.25;;;;;7.40;73.03;100861.19;4994620;28;45414;-69
2021/11/12 11:15:51;;;;;;;;;49.75;40.50;;;;;7.75;72.34;100879.63;4994229;28;45291;-67
2021/11/12 11:18:20;;;;;;;;;58.00;45.75;;;;;7.92;72.29;100876.59;4995312;27;46335;-68
2021/11/12 11:20:51;;;;;;;;;51.75;42.50;;;;;8.06;71.43;100893.75;4994018;28;45715;-69
2021/11/12 11:23:18;;;;;;;;;54.00;43.25;;;;;8.12;71.32;100910.19;4995262;28;45348;-68
2021/11/12 11:25:57;;;;;;;;;53.50;41.25;;;;;8.20;71.35;100902.13;4997644;28;45549;-68
2021/11/12 11:28:22;;;;;;;;;53.75;43.00;;;;;8.33;71.19;100900.91;4998723;28;47251;-74
2021/11/12 11:30:48;;;;;;;;;56.00;45.50;;;;;8.21;70.97;100863.69;4997740;28;45254;-67
2021/11/12 11:33:18;;;;;;;;;53.25;42.75;;;;;8.44;70.95;100899.75;4995887;28;45223;-68
2021/11/12 11:35:46;;;;;;;;;52.75;43.50;;;;;8.48;70.70;100896.16;5010587;28;45310;-68
2021/11/12 11:38:14;;;;;;;;;53.75;43.25;;;;;8.51;70.44;100905.75;4994596;28;45467;-68
2021/11/12 11:40:43;;;;;;;;;57.50;44.25;;;;;8.46;70.25;100916.31;4994722;28;45328;-71
2021/11/12 11:43:09;;;;;;;;;56.50;42.75;;;;;8.45;70.55;100904.09;4993820;28;45467;-68
2021/11/12 11:45:36;;;;;;;;;58.75;45.25;;;;;8.48;69.86;100883.94;4996409;28;45247;-68
2021/11/12 11:48:02;;;;;;;;;58.50;43.75;;;;;8.57;70.61;100885.50;4995239;28;46644;-69
2021/11/12 11:50:30;;;;;;;;;53.75;42.00;;;;;8.80;70.21;100920.72;4994794;28;45357;-74
2021/11/12 11:53:23;;;;;;;;;51.50;41.00;;;;;8.91;69.57;100929.16;4994441;28;45325;-68
2021/11/12 11:55:49;;;;;;;;;57.50;44.75;;;;;9.02;69.13;100914.88;4995060;28;45269;-69
2021/11/12 11:58:37;;;;;;;;;52.00;41.75;;;;;9.18;69.07;100908.28;4993833;28;45694;-67
2021/11/12 12:01:29;;;;;;;;;52.50;41.75;;;;;9.41;68.68;100887.50;4996801;28;45270;-69
2021/11/12 12:04:12;;;;;;;;;48.50;39.75;;;;;9.64;68.08;100889.44;4998182;28;45326;-65
2021/11/12 12:07:01;;;;;;;;;53.00;42.25;;;;;9.76;67.30;100890.78;4996354;28;45339;-69
2021/11/12 12:09:48;;;;;;;;;53.00;42.50;;;;;9.91;67.34;100879.78;4995988;27;45576;-67
2021/11/12 12:12:33;;;;;;;;;56.00;42.50;;;;;10.03;67.10;100881.16;4994611;28;45548;-66
2021/11/12 12:15:04;;;;;;;;;53.50;42.00;;;;;10.14;66.79;100870.31;4994468;28;45998;-66
2021/11/12 12:17:32;;;;;;;;;53.25;43.00;;;;;10.28;66.70;100867.19;4995808;28;45343;-66
2021/11/12 12:40:33;;;;;;;;;49.75;39.25;;;;;10.87;64.83;100835.34;4994220;28;45296;-66
2021/11/12 13:25:44;;;;;;;;;55.00;43.75;;;;;11.45;65.18;100770.81;4992950;28;45433;-69
2021/11/12 13:28:16;;;;;;;;;55.75;42.25;;;;;11.47;65.33;100777.72;4996982;28;46280;-68
2021/11/12 13:30:48;;;;;;;;;57.00;43.75;;;;;11.47;65.27;100774.22;4995379;28;45421;-68
2021/11/12 13:33:36;;;;;;;;;59.00;46.25;;;;;11.45;65.23;100766.38;4997991;28;45224;-67
2021/11/12 13:36:20;;;;;;;;;60.00;46.75;;;;;11.41;65.67;100764.78;5001339;28;45446;-65
2021/11/12 13:38:56;;;;;;;;;54.50;42.75;;;;;11.38;65.60;100760.53;4996459;28;48090;-67
2021/11/12 13:41:25;;;;;;;;;51.25;42.25;;;;;11.35;65.63;100750.13;4996472;27;45321;-67
2021/11/12 13:43:57;;;;;;;;;55.75;44.00;;;;;11.30;65.76;100738.03;4996531;28;45316;-67
2021/11/12 13:46:22;;;;;;;;;57.25;47.00;;;;;11.28;66.35;100734.59;4998486;28;45317;-66
2021/11/12 13:48:54;;;;;;;;;54.25;43.50;;;;;11.33;66.47;100740.53;4997622;28;45407;-68
2021/11/12 13:51:28;;;;;;;;;53.75;44.00;;;;;11.40;66.17;100747.28;4995773;28;45669;-69
2021/11/12 13:53:56;;;;;;;;;55.75;44.75;;;;;11.46;66.41;100741.75;4996281;28;45222;-70
2021/11/12 13:56:23;;;;;;;;;57.00;45.75;;;;;11.51;66.26;100737.16;4994804;28;45315;-70
2021/11/12 13:59:01;;;;;;;;;52.50;43.25;;;;;11.56;66.25;100731.69;4995867;27;46988;-68
2021/11/12 14:01:27;;;;;;;;;56.75;45.25;;;;;11.66;66.07;100734.78;4996746;28;45236;-66
2021/11/12 14:03:54;;;;;;;;;59.50;48.50;;;;;11.73;65.92;100736.28;4996722;28;45256;-66
2021/11/12 14:06:20;;;;;;;;;67.00;52.25;;;;;11.77;66.28;100739.63;4998347;28;45607;-67
2021/11/12 14:08:48;;;;;;;;;61.00;48.25;;;;;11.81;65.90;100738.56;4995911;28;46101;-68
2021/11/12 14:11:18;;;;;;;;;61.00;46.50;;;;;11.82;66.53;100735.88;4994866;28;45768;-66
2021/11/12 14:13:46;;;;;;;;;59.25;47.25;;;;;11.86;66.37;100733.09;4996589;28;45342;-66
2021/11/12 14:16:17;;;;;;;;;62.75;49.25;;;;;11.86;66.05;100731.31;4995571;28;45339;-67
2021/11/12 14:24:49;;;;;;;;;60.00;45.75;;;;;11.88;66.14;100710.19;5008658;28;45207;-65
2021/11/12 14:27:36;;;;;;;;;57.75;47.00;;;;;11.85;65.88;100713.78;5011476;28;45465;-65
2021/11/12 14:33:16;;;;;;;;;62.75;49.00;;;;;11.84;66.36;100715.59;4995172;28;45251;-66
2021/11/12 14:38:33;;;;;;;;;56.00;46.75;;;;;11.79;66.39;100721.97;4994441;28;45334;-63
2021/11/12 14:54:52;;;;;;;;;65.50;46.50;;;;;11.81;67.90;100707.81;4994817;28;45434;-68
2021/11/12 14:57:28;;;;;;;;;61.75;47.25;;;;;11.82;67.36;100701.63;4995326;28;45515;-64
2021/11/12 15:00:08;;;;;;;;;53.25;43.25;;;;;11.79;67.71;100699.13;4995132;28;45459;-67
2021/11/12 15:02:35;;;;;;;;;53.75;44.00;;;;;11.82;68.33;100712.16;4993399;28;47233;-71
2021/11/12 15:05:01;;;;;;;;;57.75;44.25;;;;;11.79;67.73;100714.94;5010481;28;45318;-68
2021/11/12 15:07:34;;;;;;;;;52.75;43.00;;;;;11.77;67.76;100714.13;4995367;28;45365;-66
2021/11/12 15:10:00;;;;;;;;;58.50;46.75;;;;;11.75;68.32;100717.75;4996392;28;45311;-66
2021/11/12 15:12:27;;;;;;;;;61.50;48.25;;;;;11.73;68.40;100725.72;4994934;27;46600;-66
2021/11/12 15:14:57;;;;;;;;;61.00;47.50;;;;;11.69;68.42;100717.09;4996620;28;45353;-68
2021/11/12 15:17:23;;;;;;;;;60.25;47.25;;;;;11.64;68.22;100697.97;4996132;28;45365;-65
2021/11/12 15:19:52;;;;;;;;;56.75;45.25;;;;;11.68;68.61;100706.63;4993945;28;45500;-67
2021/11/12 15:28:00;;;;;;;;;50.25;40.00;;;;;11.54;69.22;100704.56;4994698;28;45254;-66
2021/11/12 15:30:28;;;;;;;;;56.25;43.50;;;;;11.48;69.48;100704.81;4996272;28;45495;-65
2021/11/12 15:33:36;;;;;;;;;54.25;43.25;;;;;11.47;69.15;100717.13;4998200;28;47151;-68
2021/11/12 15:35:44;;;;;;;;;54.25;43.25;;;;;11.44;69.47;100709.34;5009620;27;45501;-65
2021/11/12 15:38:21;;;;;;;;;58.75;44.50;;;;;11.37;69.63;100710.53;4995076;28;45342;-65
2021/11/12 15:40:49;;;;;;;;;57.75;46.25;;;;;11.32;69.58;100712.50;4995330;28;45293;-67
2021/11/12 15:43:28;;;;;;;;;51.50;41.25;;;;;11.28;69.78;100713.53;4994541;28;46435;-66
2021/11/12 15:46:10;;;;;;;;;49.25;40.25;;;;;11.23;70.25;100711.97;4993950;28;45377;-64
2021/11/12 15:48:38;;;;;;;;;51.00;40.25;;;;;11.17;69.84;100709.56;4994434;28;45450;-65
2021/11/12 15:51:29;;;;;;;;;51.25;42.25;;;;;11.12;70.40;100708.91;4995461;28;45484;-64
2021/11/12 15:56:53;;;;;;;;;48.25;39.00;;;;;10.95;70.39;100704.31;4994138;28;45295;-63
2021/11/12 16:26:06;;;;;;;;;49.75;41.50;;;;;10.38;73.21;100739.72;4995176;28;45867;-68
2021/11/12 16:28:43;;;;;;;;;51.75;41.50;;;;;10.34;72.85;100732.03;4994921;28;45414;-68
2021/11/12 16:31:08;;;;;;;;;52.50;42.25;;;;;10.28;73.28;100727.00;5010974;28;45398;-66
2021/11/12 16:33:34;;;;;;;;;50.00;39.75;;;;;10.29;73.28;100733.97;4995124;28;45376;-64
2021/11/12 16:36:04;;;;;;;;;53.50;42.25;;;;;10.27;73.40;100731.38;4994020;28;47272;-66
2021/11/12 16:38:33;;;;;;;;;50.00;40.75;;;;;10.30;73.18;100735.69;4992776;28;45572;-68
2021/11/12 16:48:50;;;;;;;;;47.75;39.00;;;;;10.37;72.93;100735.38;4993941;28;45254;-67
2021/11/12 16:51:32;;;;;;;;;46.25;39.00;;;;;10.36;73.18;100730.19;4994459;28;45460;-66
2021/11/12 16:54:19;;;;;;;;;53.50;39.75;;;;;10.35;73.49;100712.72;4993791;28;45592;-67
2021/11/12 16:59:20;;;;;;;;;50.75;38.00;;;;;10.36;73.16;100714.41;4992271;28;45260;-68
2021/11/12 17:46:51;;;;;;;;;45.50;38.50;;;;;9.98;73.72;100653.59;4994171;28;45287;-67
2021/11/12 18:02:35;;;;;;;;;38.50;32.25;;;;;10.06;73.87;100672.56;4991860;28;45406;-67